Latest Weather Observations for Nullarbor

IDS60801

Issued at 2:32 pm CST Wednesday 28 June 2017 (issued every 30 minutes, with the page automatically refreshed every 10 minutes)

About weather observations | Map of weather stations | Latest weather observations for SA | Other Formats
Station Details ID: 018106 Name: NULLARBOR Lat: -31.45 Lon: 130.90 Height: 64.0 m
Data from the previous 72 hours. | See also: Recent months at Nullarbor
Date/Time
CST
Temp
°C
App
Temp
°C
Dew
Point
°C
Rel
Hum
%
Delta-T
°C
Wind Press
QNH
hPa
Press
MSL
hPa
Rain since
9am
mm
Dir  Spd
km/h
Gust
km/h
Spd
kts
Gust
kts
28/02:30pm 15.2 9.2 10.8 75 2.3 S 33 43 18 23 1028.1 1028.1 0.6
28/02:00pm 13.2 7.7 11.9 92 0.7 S 32 41 17 22 1028.2 1028.2 0.6
28/01:46pm 13.9 9.8 13.7 99 0.1 S 28 37 15 20 1028.2 1028.2 0.6
28/01:33pm 12.4 6.7 11.9 97 0.3 S 33 52 18 28 1028.3 1028.3 0.6
28/01:30pm 12.3 6.1 11.5 95 0.4 S 35 52 19 28 1028.4 1028.4 0.6
28/01:25pm 12.8 6.1 11.0 89 0.9 S 37 52 20 28 1028.2 1028.2 0.4
28/01:00pm 14.5 8.6 10.5 77 2.1 S 32 41 17 22 1028.3 1028.3 0.2
28/12:30pm 15.7 10.2 10.7 72 2.6 S 30 39 16 21 1028.4 1028.4 0.0
28/12:00pm 15.1 9.0 9.9 71 2.7 S 32 43 17 23 1028.6 1028.6 0.0
28/11:30am 15.6 10.1 10.4 71 2.7 S 30 39 16 21 1028.6 1028.6 0.0
28/11:00am 15.3 9.2 9.7 69 2.9 SSW 32 41 17 22 1028.4 1028.4 0.0
28/10:30am 15.1 9.5 10.1 72 2.6 SSW 30 37 16 20 1028.0 1028.0 0.0
28/10:00am 14.8 10.8 10.4 75 2.3 SSW 22 35 12 19 1027.7 1027.7 0.0
28/09:30am 13.5 10.0 11.0 85 1.3 SSW 20 24 11 13 1027.4 1027.4 0.0
28/09:00am 12.4 10.3 12.4 100 0.0 SSW 15 19 8 10 1027.1 1027.1 6.4
28/08:30am 10.7 8.1 10.7 100 0.0 SSW 15 19 8 10 1026.6 1026.6 6.4
28/08:00am 10.4 8.1 10.4 100 0.0 SW 13 15 7 8 1026.3 1026.3 6.4
28/07:30am 10.0 8.3 10.0 100 0.0 WNW 9 11 5 6 1025.9 1025.9 6.4
28/07:06am 10.0 8.0 10.0 100 0.0 NW 11 13 6 7 1025.7 1025.7 6.4
28/07:00am 10.1 8.5 10.1 100 0.0 NW 9 13 5 7 1025.7 1025.7 6.4
28/06:34am 10.0 7.6 10.0 100 0.0 W 13 17 7 9 1025.8 1025.8 5.8
28/06:30am 10.0 7.6 10.0 100 0.0 W 13 17 7 9 1025.8 1025.8 5.4
28/06:19am 10.0 8.3 10.0 100 0.0 W 9 13 5 7 1025.5 1025.5 5.4
28/06:00am 10.7 7.7 10.7 100 0.0 SSW 17 28 9 15 1025.4 1025.4 5.2
28/05:47am 9.1 6.4 9.1 100 0.0 W 13 19 7 10 1025.3 1025.3 4.4
28/05:30am 9.5 8.3 9.5 100 0.0 W 6 6 3 3 1025.0 1025.0 4.4
28/05:12am 10.1 8.8 10.1 100 0.0 SSW 7 15 4 8 1025.1 1025.1 4.4
28/05:00am 10.1 8.1 10.1 100 0.0 SW 11 19 6 10 1025.2 1025.2 4.4
28/04:46am 9.4 6.4 9.4 100 0.0 WSW 15 22 8 12 1025.3 1025.3 3.4
28/04:30am 8.6 6.6 8.6 100 0.0 W 9 11 5 6 1025.2 1025.2 3.0
28/04:00am 8.7 8.0 8.7 100 0.0 SW 2 7 1 4 1024.9 1024.9 3.0
28/03:45am 9.6 7.8 9.6 100 0.0 W 9 11 5 6 1025.0 1025.0 3.0
28/03:30am 9.5 6.6 9.5 100 0.0 W 15 24 8 13 1025.2 1025.2 2.8
28/03:00am 7.7 4.3 7.7 100 0.0 W 15 19 8 10 1025.2 1025.2 0.6
28/02:58am 7.5 4.1 7.5 100 0.0 W 15 19 8 10 1025.2 1025.2 0.4
28/02:30am 6.3 3.4 6.3 100 0.0 NW 11 13 6 7 1025.0 1025.0 0.0
28/02:00am 6.1 2.7 6.1 100 0.0 WNW 13 13 7 7 1024.9 1024.9 0.0
28/01:30am 6.0 3.0 6.0 100 0.0 NW 11 13 6 7 1024.9 1024.9 0.0
28/01:00am 6.7 3.5 6.7 100 0.0 W 13 15 7 8 1025.0 1025.0 0.0
28/12:30am 7.4 4.3 7.4 100 0.0 W 13 15 7 8 1025.0 1025.0 0.0
28/12:00am 7.2 4.1 7.2 100 0.0 WNW 13 15 7 8 1025.1 1025.1 0.0
 
Date/Time
CST
Temp
°C
App
Temp
°C
Dew
Point
°C
Rel
Hum
%
Delta-T
°C
Wind Press
QNH
hPa
Press
MSL
hPa
Rain since
9am
mm
Dir  Spd
km/h
Gust
km/h
Spd
kts
Gust
kts
27/11:30pm 7.0 4.2 6.9 99 0.0 WNW 11 13 6 7 1025.2 1025.2 0.0
27/11:00pm 7.3 4.2 7.2 99 0.0 WNW 13 15 7 8 1025.1 1025.1 0.0
27/10:30pm 6.8 3.6 6.7 99 0.0 WNW 13 15 7 8 1025.2 1025.2 0.0
27/10:00pm 7.7 4.7 7.6 99 0.0 WNW 13 13 7 7 1025.0 1025.0 0.0
27/09:30pm 8.2 5.3 8.1 99 0.0 W 13 15 7 8 1025.1 1025.1 0.0
27/09:00pm 8.1 4.8 8.0 99 0.0 W 15 17 8 9 1025.1 1025.1 0.0
27/08:30pm 9.1 6.4 8.8 98 0.1 W 13 17 7 9 1024.9 1024.9 0.0
27/08:00pm 9.9 8.0 9.0 94 0.4 WSW 9 11 5 6 1024.8 1024.8 0.0
27/07:30pm 10.7 9.4 9.1 90 0.8 SW 6 7 3 4 1024.6 1024.6 0.0
27/07:00pm 11.5 10.1 9.4 87 1.1 SSW 7 9 4 5 1024.3 1024.3 0.0
27/06:30pm 12.1 10.3 9.5 84 1.3 SSW 9 11 5 6 1024.2 1024.2 0.0
27/06:00pm 13.4 12.1 10.0 80 1.7 S 7 9 4 5 1023.8 1023.8 0.0
27/05:30pm 13.9 11.8 9.9 77 2.1 S 11 15 6 8 1023.6 1023.6 0.0
27/05:00pm 14.2 11.3 9.8 75 2.3 SSE 15 19 8 10 1023.3 1023.3 0.0
27/04:30pm 15.3 11.9 9.0 66 3.2 S 17 24 9 13 1022.8 1022.9 0.0
27/04:00pm 15.5 12.7 8.7 64 3.5 SSW 13 19 7 10 1022.9 1023.0 0.0
27/03:30pm 15.4 13.0 8.6 64 3.4 SW 11 17 6 9 1022.7 1022.8 0.0
27/03:00pm 15.3 12.6 8.8 65 3.3 SSW 13 19 7 10 1022.8 1022.9 0.0
27/02:30pm 15.7 13.0 8.9 64 3.5 SSW 13 20 7 11 1023.1 1023.1 0.0
27/02:00pm 14.8 12.9 10.4 75 2.3 SSW 11 15 6 8 1023.2 1023.2 0.0
27/01:30pm 14.0 13.9 9.6 75 2.3 CALM 0 0 0 0 1023.6 1023.6 0.0
27/01:18pm 13.6 12.8 9.8 78 2.0 W 4 7 2 4 1023.7 1023.7 0.0
27/01:04pm 13.5 11.0 10.9 84 1.4 S 15 20 8 11 1023.9 1023.9 0.0
27/01:00pm 13.7 10.7 10.5 81 1.7 S 17 20 9 11 1023.9 1023.9 0.0
27/12:30pm 15.1 13.8 9.9 71 2.7 SSE 7 11 4 6 1024.1 1024.1 0.0
27/12:00pm 14.9 12.9 10.1 73 2.5 S 11 15 6 8 1024.5 1024.5 0.0
27/11:30am 13.8 13.2 11.8 88 1.1 S 6 9 3 5 1024.9 1024.9 0.0
27/11:00am 12.6 13.4 12.4 99 0.1 CALM 0 4 0 2 1025.3 1025.3 0.0
27/10:30am 11.8 11.5 11.6 99 0.1 NW 4 6 2 3 1025.3 1025.3 0.0
27/10:00am 11.6 11.0 11.6 100 0.0 NNW 6 7 3 4 1025.1 1025.1 0.0
27/09:30am 11.1 10.1 11.1 100 0.0 ENE 7 9 4 5 1024.9 1024.9 0.0
27/09:00am 10.5 9.4 10.5 100 0.0 ENE 7 9 4 5 1024.6 1024.6 0.2
27/08:30am 9.9 8.6 9.9 100 0.0 ENE 7 9 4 5 1024.4 1024.4 0.2
27/08:00am 9.4 9.3 9.4 100 0.0 CALM 0 0 0 0 1024.1 1024.1 0.2
27/07:30am 9.5 9.4 9.5 100 0.0 CALM 0 0 0 0 1023.9 1023.9 0.2
27/07:00am 9.4 8.2 9.4 100 0.0 ENE 6 6 3 3 1023.7 1023.7 0.2
27/06:30am 8.9 7.5 8.9 100 0.0 E 6 7 3 4 1023.4 1023.4 0.2
27/06:00am 8.9 8.7 8.9 100 0.0 CALM 0 0 0 0 1023.3 1023.3 0.2
27/05:30am 9.1 8.9 9.1 100 0.0 CALM 0 6 0 3 1023.3 1023.3 0.2
27/05:00am 9.5 8.1 9.5 100 0.0 SW 7 9 4 5 1023.3 1023.3 0.2
27/04:30am 9.2 7.3 9.2 100 0.0 SW 9 11 5 6 1023.5 1023.5 0.2
27/04:00am 9.5 8.1 9.5 100 0.0 SW 7 9 4 5 1023.7 1023.7 0.2
27/03:30am 9.5 9.4 9.4 99 0.0 CALM 0 0 0 0 1023.4 1023.4 0.2
27/03:00am 9.9 9.9 9.8 99 0.1 CALM 0 0 0 0 1023.6 1023.6 0.2
27/02:30am 10.2 10.3 10.1 99 0.1 CALM 0 0 0 0 1023.8 1023.8 0.2
27/02:00am 10.2 9.1 10.1 99 0.1 NE 6 7 3 4 1023.8 1023.8 0.2
27/01:30am 10.5 9.5 10.3 99 0.1 ENE 6 7 3 4 1023.6 1023.6 0.2
27/01:00am 10.5 10.6 10.3 99 0.1 CALM 0 6 0 3 1024.0 1024.0 0.2
27/12:30am 10.4 8.8 10.2 99 0.1 NNE 9 11 5 6 1024.2 1024.2 0.2
27/12:00am 10.7 9.2 10.5 99 0.1 N 9 11 5 6 1024.4 1024.4 0.2
 
Date/Time
CST
Temp
°C
App
Temp
°C
Dew
Point
°C
Rel
Hum
%
Delta-T
°C
Wind Press
QNH
hPa
Press
MSL
hPa
Rain since
9am
mm
Dir  Spd
km/h
Gust
km/h
Spd
kts
Gust
kts
26/11:30pm 10.9 10.0 10.7 99 0.1 NNW 6 7 3 4 1024.6 1024.6 0.2
26/11:00pm 10.9 9.1 10.7 99 0.1 NNE 11 13 6 7 1024.8 1024.8 0.2
26/10:30pm 11.2 9.8 11.0 99 0.1 NNE 9 13 5 7 1024.7 1024.7 0.2
26/10:00pm 11.0 10.1 10.8 99 0.1 S 6 13 3 7 1024.8 1024.8 0.2
26/09:30pm 10.9 9.8 10.7 99 0.1 SSE 7 9 4 5 1024.7 1024.7 0.2
26/09:00pm 10.5 8.9 10.3 99 0.1 SSE 9 9 5 5 1024.6 1024.6 0.2
26/08:30pm 11.2 9.8 11.0 99 0.1 S 9 9 5 5 1024.7 1024.7 0.2
26/08:00pm 11.3 10.3 11.1 99 0.1 SE 7 7 4 4 1024.8 1024.8 0.2
26/07:30pm 11.6 10.0 11.4 99 0.1 S 11 11 6 6 1024.8 1024.8 0.2
26/07:00pm 11.8 10.6 11.6 99 0.1 S 9 11 5 6 1024.6 1024.6 0.2
26/06:30pm 11.9 10.7 11.7 99 0.1 S 9 11 5 6 1024.4 1024.4 0.2
26/06:00pm 12.1 11.3 11.6 97 0.3 S 7 9 4 5 1024.2 1024.2 0.2
26/05:30pm 12.7 11.6 12.1 96 0.3 SW 9 9 5 5 1024.3 1024.3 0.2
26/05:00pm 12.9 11.8 11.8 93 0.6 SW 9 11 5 6 1024.3 1024.3 0.2
26/04:30pm 13.0 11.2 12.1 94 0.5 SW 13 15 7 8 1024.4 1024.4 0.2
26/04:00pm 12.9 11.1 12.1 95 0.4 SW 13 17 7 9 1024.0 1024.0 0.2
26/03:36pm 13.0 11.7 12.4 96 0.3 SW 11 15 6 8 1024.0 1024.0 0.2
26/03:30pm 13.0 11.7 12.4 96 0.3 WSW 11 13 6 7 1024.1 1024.1 0.2
26/03:00pm 12.9 11.9 12.3 96 0.3 WSW 9 13 5 7 1024.4 1024.4 0.2
26/02:58pm 13.0 12.0 12.4 96 0.3 WSW 9 13 5 7 1024.4 1024.4 0.2
26/02:30pm 12.8 12.1 12.0 95 0.4 W 7 11 4 6 1024.6 1024.6 0.2
26/02:24pm 12.7 11.2 11.8 94 0.5 W 11 13 6 7 1024.7 1024.7 0.2
26/02:10pm 13.3 13.0 11.4 88 1.0 W 4 9 2 5 1024.8 1024.8 0.2
26/02:00pm 13.3 11.2 11.2 87 1.1 SSE 13 17 7 9 1024.8 1024.8 0.0
26/01:35pm 13.7 12.1 11.4 86 1.2 SE 11 19 6 10 1025.2 1025.2 0.0
26/01:30pm 13.8 13.0 11.0 83 1.5 E 6 9 3 5 1025.1 1025.1 0.0
26/01:16pm 13.4 10.3 10.4 82 1.6 ENE 17 20 9 11 1025.2 1025.2 0.0
26/01:00pm 14.0 11.0 10.8 81 1.7 E 17 24 9 13 1025.0 1025.0 0.0
26/12:30pm 14.7 11.8 11.1 79 1.9 NE 17 20 9 11 1025.8 1025.8 0.0
26/12:00pm 13.7 11.1 10.7 82 1.6 ENE 15 20 8 11 1026.4 1026.4 0.0
26/11:38am 14.0 12.0 11.5 85 1.3 ENE 13 19 7 10 1026.6 1026.6 0.0
26/11:30am 13.8 11.5 11.7 87 1.1 ENE 15 20 8 11 1026.5 1026.5 0.0
26/11:00am 13.4 12.0 13.4 100 0.0 E 13 19 7 10 1026.9 1026.9 0.0
26/10:30am 12.0 10.2 12.0 100 0.0 ENE 13 17 7 9 1026.7 1026.7 0.0
26/10:00am 11.6 9.6 11.6 100 0.0 ENE 13 17 7 9 1026.7 1026.7 0.0
26/09:30am 10.4 8.5 10.4 100 0.0 E 11 13 6 7 1026.3 1026.3 0.0
26/09:00am 8.8 6.1 8.8 100 0.0 ENE 13 15 7 8 1026.2 1026.2 1.6
26/08:47am 8.3 5.1 8.3 100 0.0 E 15 17 8 9 1026.1 1026.1 1.6
26/08:30am 6.8 3.6 6.8 100 0.0 ENE 13 13 7 7 1025.7 1025.7 1.6
26/08:00am 6.5 3.6 6.5 100 0.0 NE 11 13 6 7 1025.5 1025.5 1.6
26/07:30am 5.1 2.3 5.1 100 0.0 NNE 9 11 5 6 1025.2 1025.2 1.6
26/07:00am 4.9 2.6 4.9 100 0.0 N 6 7 3 4 1024.6 1024.6 1.6
26/06:30am 4.7 2.4 4.7 100 0.0 NNE 6 9 3 5 1024.5 1024.5 1.6
26/06:00am 6.2 5.3 6.2 100 0.0 CALM 0 0 0 0 1024.1 1024.1 1.6
26/05:47am 6.8 6.1 6.8 100 0.0 CALM 0 0 0 0 1024.0 1024.0 1.6
26/05:30am 7.4 6.8 7.4 100 0.0 CALM 0 0 0 0 1024.2 1024.2 1.6
26/05:00am 6.6 4.5 6.6 100 0.0 N 7 11 4 6 1024.4 1024.4 1.6
26/04:30am 7.5 5.8 7.5 100 0.0 ESE 6 9 3 5 1024.6 1024.6 1.6
26/04:00am 7.7 7.2 7.7 100 0.0 CALM 0 0 0 0 1024.7 1024.7 1.6
26/03:30am 7.8 5.6 7.8 100 0.0 NNW 9 11 5 6 1025.0 1025.0 1.6
26/03:00am 7.2 4.5 7.2 100 0.0 NNW 11 13 6 7 1024.9 1024.9 1.6
26/02:30am 7.4 5.1 7.4 100 0.0 NW 9 11 5 6 1024.4 1024.4 1.6
26/02:00am 6.8 3.9 6.7 99 0.0 N 11 13 6 7 1024.5 1024.5 1.6
26/01:30am 9.0 7.5 9.0 100 0.0 SSW 7 9 4 5 1024.5 1024.5 1.6
26/01:00am 8.9 7.0 8.9 100 0.0 WSW 9 9 5 5 1024.8 1024.8 1.6
26/12:30am 8.6 6.2 8.5 99 0.0 WSW 11 15 6 8 1025.1 1025.1 1.6
26/12:00am 8.1 7.6 8.0 99 0.0 CALM 0 6 0 3 1025.3 1025.3 1.6
 
Date/Time
CST
Temp
°C
App
Temp
°C
Dew
Point
°C
Rel
Hum
%
Delta-T
°C
Wind Press
QNH
hPa
Press
MSL
hPa
Rain since
9am
mm
Dir  Spd
km/h
Gust
km/h
Spd
kts
Gust
kts
25/11:30pm 8.9 7.5 8.8 99 0.0 SW 6 7 3 4 1025.3 1025.3 1.6
25/11:00pm 9.4 7.9 9.3 99 0.0 S 7 11 4 6 1025.2 1025.2 1.6
25/10:30pm 9.1 7.2 9.0 99 0.0 S 9 11 5 6 1025.1 1025.1 1.6
25/10:00pm 10.2 9.1 10.1 99 0.1 WSW 6 7 3 4 1025.2 1025.2 1.6
25/09:30pm 7.6 5.6 7.3 98 0.1 E 7 9 4 5 1025.2 1025.2 1.6
25/09:00pm 10.3 9.2 10.1 99 0.1 SSW 6 7 3 4 1025.0 1025.0 1.6
25/08:30pm 10.3 9.2 10.1 99 0.1 S 6 7 3 4 1025.0 1025.0 1.6
25/08:00pm 10.8 9.3 10.5 98 0.2 SSW 9 11 5 6 1024.7 1024.7 1.6
25/07:30pm 10.8 9.2 10.3 97 0.3 WSW 9 9 5 5 1024.4 1024.4 1.6
25/07:00pm 11.1 9.5 10.3 95 0.4 SSE 9 9 5 5 1024.2 1024.2 1.6
25/06:30pm 11.4 9.8 10.3 93 0.6 SSE 9 11 5 6 1024.1 1024.1 1.6
25/06:00pm 12.3 10.4 10.5 89 0.9 SSE 11 15 6 8 1023.9 1023.9 1.6
25/05:30pm 13.0 10.0 10.7 86 1.2 S 17 19 9 10 1023.7 1023.7 1.6
25/05:00pm 13.9 10.1 11.1 83 1.5 S 22 30 12 16 1023.7 1023.7 1.6
25/04:30pm 14.5 10.9 10.7 78 2.0 S 20 32 11 17 1023.4 1023.4 1.6
25/04:00pm 14.8 11.2 10.6 76 2.2 S 20 26 11 14 1022.8 1022.9 1.6
25/03:30pm 14.5 10.4 11.5 82 1.6 S 24 30 13 16 1022.8 1022.9 1.6
25/03:00pm 14.9 11.5 10.7 76 2.2 S 19 24 10 13 1023.1 1023.1 1.6

Other Formats:

Comma delimited format used in spreadsheet applications
http://www.bom.gov.au/fwo/IDS60801/IDS60801.94651.axf

JavaScript Object Notation format (JSON) in row-major order
http://www.bom.gov.au/fwo/IDS60801/IDS60801.94651.json